Time;durP1;ratioP1;P1;durP2;ratioP2;P2;SDS_P1;SDS_P2;PMS_P1;PMS_P2;Temp;Humidity;BMP_temperature;BMP_pressure;BME280_temperature;BME280_humidity;BME280_pressure;Samples;Min_cycle;Max_cycle;Signal;HPM_P1;HPM_P2
2021/12/11 00:01:19;;;;;;;1.40;1.30;;;7.50;68.40;;;;;;4972179;28;20434;-52
2021/12/11 00:03:58;;;;;;;1.60;1.50;;;7.50;68.50;;;;;;4965677;28;20566;-52
2021/12/11 00:06:29;;;;;;;1.90;1.80;;;7.50;68.60;;;;;;4961901;28;21017;-53
2021/12/11 00:08:58;;;;;;;3.27;1.97;;;7.50;68.50;;;;;;4972417;28;20446;-52
2021/12/11 00:11:37;;;;;;;1.77;1.67;;;7.30;68.50;;;;;;4958390;28;20424;-55
2021/12/11 00:14:05;;;;;;;1.50;1.40;;;7.30;68.90;;;;;;4967351;28;20482;-53
2021/12/11 00:16:34;;;;;;;1.40;1.30;;;7.30;69.10;;;;;;4962962;28;20438;-55
2021/12/11 00:19:10;;;;;;;2.50;1.83;;;7.30;68.80;;;;;;4963086;28;20886;-54
2021/12/11 00:21:36;;;;;;;1.90;1.57;;;7.20;69.10;;;;;;4965376;28;20589;-53
2021/12/11 00:24:05;;;;;;;1.27;1.17;;;7.40;69.20;;;;;;4967089;28;20833;-55
2021/12/11 00:26:35;;;;;;;1.60;1.40;;;7.40;68.70;;;;;;4965991;28;20506;-54
2021/12/11 00:29:03;;;;;;;1.63;1.33;;;7.40;68.70;;;;;;4967717;28;20950;-55
2021/12/11 00:31:30;;;;;;;1.33;1.23;;;7.50;68.50;;;;;;4963825;28;20832;-55
2021/12/11 00:33:56;;;;;;;2.20;1.40;;;7.80;67.80;;;;;;4966906;28;20455;-56
2021/12/11 00:36:27;;;;;;;1.80;1.00;;;8.00;68.30;;;;;;4962565;28;20443;-56
2021/12/11 00:38:53;;;;;;;5.23;2.27;;;8.00;67.60;;;;;;4961820;28;20956;-56
2021/12/11 00:41:21;;;;;;;2.10;1.90;;;8.00;68.00;;;;;;4967836;28;20438;-53
2021/12/11 00:43:48;;;;;;;1.67;1.57;;;8.00;67.00;;;;;;4960832;28;20206;-55
2021/12/11 00:46:26;;;;;;;2.17;1.20;;;8.00;67.30;;;;;;4971240;28;20466;-55
2021/12/11 00:48:52;;;;;;;1.87;1.40;;;8.10;67.30;;;;;;4967472;28;21018;-56
2021/12/11 00:51:20;;;;;;;1.30;1.20;;;8.00;66.60;;;;;;4966774;28;20519;-56
2021/12/11 00:53:53;;;;;;;1.80;1.50;;;7.90;66.80;;;;;;4968769;28;20277;-55
2021/12/11 00:56:29;;;;;;;1.67;1.20;;;7.70;66.50;;;;;;4971233;28;20441;-55
2021/12/11 00:59:00;;;;;;;1.50;1.40;;;7.50;67.40;;;;;;4971918;28;20493;-56
2021/12/11 01:01:29;;;;;;;1.27;1.10;;;7.30;67.90;;;;;;4966106;28;20972;-55
2021/12/11 01:04:09;;;;;;;1.13;1.03;;;7.30;68.00;;;;;;4966790;28;20434;-54
2021/12/11 01:06:49;;;;;;;1.20;1.13;;;7.50;67.60;;;;;;4972435;28;20445;-55
2021/12/11 01:09:19;;;;;;;1.73;0.90;;;7.30;68.00;;;;;;4970821;28;20938;-55
2021/12/11 01:11:56;;;;;;;1.30;1.20;;;7.30;68.20;;;;;;4972119;28;20498;-55
2021/12/11 01:14:39;;;;;;;1.10;1.00;;;7.20;68.40;;;;;;4964822;28;20518;-54
2021/12/11 01:17:43;;;;;;;1.23;1.13;;;7.30;68.50;;;;;;4967773;28;20474;-55
2021/12/11 01:20:24;;;;;;;2.20;1.20;;;7.10;68.50;;;;;;4970597;28;20521;-55
2021/12/11 01:22:52;;;;;;;1.13;1.00;;;7.10;68.90;;;;;;4970940;28;20510;-56
2021/12/11 01:25:35;;;;;;;1.10;1.00;;;7.30;69.70;;;;;;4968167;28;20525;-56
2021/12/11 01:28:02;;;;;;;1.13;1.03;;;7.30;68.00;;;;;;4963022;28;20451;-56
2021/12/11 01:30:36;;;;;;;1.07;0.93;;;7.40;67.90;;;;;;4965953;28;20438;-54
2021/12/11 01:33:05;;;;;;;0.83;0.83;;;7.60;67.30;;;;;;4969739;28;20927;-55
2021/12/11 01:35:31;;;;;;;2.83;0.90;;;7.60;66.70;;;;;;4967667;28;20867;-54
2021/12/11 01:38:17;;;;;;;0.80;0.80;;;7.60;67.00;;;;;;4966109;28;20462;-55
2021/12/11 01:40:45;;;;;;;1.00;0.90;;;7.60;66.90;;;;;;4965105;28;20486;-55
2021/12/11 01:43:12;;;;;;;0.93;0.93;;;7.60;66.80;;;;;;4961485;28;20467;-55
2021/12/11 01:45:45;;;;;;;0.90;0.90;;;7.60;66.80;;;;;;4977844;28;20477;-56
2021/12/11 01:48:23;;;;;;;1.17;0.90;;;7.60;66.70;;;;;;4958840;28;20802;-55
2021/12/11 01:51:05;;;;;;;1.07;0.97;;;7.70;66.70;;;;;;4970410;28;20466;-55
2021/12/11 01:53:36;;;;;;;1.93;1.00;;;7.60;67.60;;;;;;4965061;28;20438;-56
2021/12/11 01:56:19;;;;;;;1.43;1.07;;;7.70;67.00;;;;;;4971359;28;20994;-55
2021/12/11 01:59:04;;;;;;;0.67;0.67;;;7.70;66.70;;;;;;4961804;28;20477;-56
2021/12/11 02:01:55;;;;;;;0.80;0.60;;;7.80;66.50;;;;;;4972683;28;20451;-57
2021/12/11 02:04:24;;;;;;;1.00;0.80;;;7.90;66.20;;;;;;4966176;28;20950;-55
2021/12/11 02:06:52;;;;;;;0.90;0.90;;;7.90;65.90;;;;;;4972534;28;20858;-55
2021/12/11 02:09:20;;;;;;;1.27;1.00;;;7.60;66.00;;;;;;4969807;28;20438;-56
2021/12/11 02:11:51;;;;;;;0.80;0.80;;;7.60;66.50;;;;;;4973051;28;20528;-56
2021/12/11 02:14:24;;;;;;;1.20;1.10;;;7.60;66.70;;;;;;4969447;28;20443;-56
2021/12/11 02:16:52;;;;;;;0.93;0.90;;;7.70;66.40;;;;;;4974818;28;20435;-56
2021/12/11 02:19:31;;;;;;;1.00;1.00;;;7.60;66.40;;;;;;4970015;28;20584;-56
2021/12/11 02:22:00;;;;;;;1.00;0.90;;;7.60;66.40;;;;;;4970779;28;20435;-56
2021/12/11 02:24:36;;;;;;;1.10;0.87;;;7.70;66.10;;;;;;4974949;28;20520;-56
2021/12/11 02:27:11;;;;;;;0.80;0.80;;;7.70;66.50;;;;;;4965085;28;20446;-56
2021/12/11 02:29:45;;;;;;;1.17;1.07;;;7.80;66.20;;;;;;4973590;28;20438;-55
2021/12/11 02:32:32;;;;;;;1.40;1.30;;;7.90;65.80;;;;;;4974624;28;20514;-54
2021/12/11 02:35:06;;;;;;;0.87;0.87;;;7.80;65.80;;;;;;4975096;28;20812;-56
2021/12/11 02:37:39;;;;;;;1.40;1.30;;;7.80;65.80;;;;;;4975671;28;20445;-54
2021/12/11 02:40:14;;;;;;;1.37;1.27;;;7.90;65.70;;;;;;4974146;28;20490;-55
2021/12/11 02:42:51;;;;;;;1.07;0.97;;;7.90;65.60;;;;;;4974886;28;20450;-53
2021/12/11 02:45:37;;;;;;;1.63;0.87;;;7.90;65.80;;;;;;4972939;28;20434;-54
2021/12/11 02:48:18;;;;;;;1.03;1.03;;;8.00;66.00;;;;;;4962172;28;20447;-53
2021/12/11 02:50:48;;;;;;;2.30;1.73;;;8.00;65.60;;;;;;4971062;28;20549;-53
2021/12/11 02:53:20;;;;;;;1.10;1.10;;;8.10;65.50;;;;;;4970066;28;20445;-56
2021/12/11 02:55:56;;;;;;;1.27;1.17;;;8.00;65.30;;;;;;4967695;28;20843;-55
2021/12/11 02:58:28;;;;;;;1.50;1.40;;;8.10;65.50;;;;;;4971973;28;20493;-54
2021/12/11 03:01:07;;;;;;;1.30;1.20;;;7.90;65.70;;;;;;4973078;28;20863;-55
2021/12/11 03:03:38;;;;;;;1.40;1.30;;;7.80;66.20;;;;;;4972561;28;20472;-55
2021/12/11 03:06:16;;;;;;;1.53;1.43;;;7.90;66.20;;;;;;4964502;28;20441;-56
2021/12/11 03:08:42;;;;;;;1.90;1.80;;;7.90;66.30;;;;;;4971049;28;20431;-54
2021/12/11 03:11:11;;;;;;;1.50;1.40;;;8.00;66.20;;;;;;4970609;28;20802;-56
2021/12/11 03:13:39;;;;;;;1.73;1.63;;;8.00;65.70;;;;;;4970565;28;20432;-54
2021/12/11 03:16:06;;;;;;;2.10;1.90;;;7.90;65.90;;;;;;4959266;28;20450;-55
2021/12/11 03:18:33;;;;;;;1.93;1.83;;;7.90;66.20;;;;;;4972744;28;20852;-56
2021/12/11 03:20:58;;;;;;;1.77;1.67;;;8.00;66.20;;;;;;4972338;28;20431;-56
2021/12/11 03:23:24;;;;;;;1.70;1.60;;;8.10;66.10;;;;;;4973831;28;20444;-54
2021/12/11 03:25:50;;;;;;;1.80;1.70;;;7.90;65.90;;;;;;4965701;28;20199;-54
2021/12/11 03:28:19;;;;;;;1.83;1.73;;;7.80;66.60;;;;;;4965799;28;20212;-55
2021/12/11 03:30:51;;;;;;;2.07;1.87;;;7.80;67.00;;;;;;4961645;28;20442;-53
2021/12/11 03:33:18;;;;;;;2.50;2.30;;;7.80;66.80;;;;;;4960148;28;20502;-56
2021/12/11 03:35:44;;;;;;;1.97;1.87;;;7.80;66.90;;;;;;4962070;28;20938;-52
2021/12/11 03:38:11;;;;;;;2.03;1.93;;;7.90;66.80;;;;;;4961246;28;20478;-52
2021/12/11 03:40:37;;;;;;;2.60;2.40;;;8.00;66.30;;;;;;4967495;28;20486;-55
2021/12/11 03:43:10;;;;;;;2.57;2.37;;;8.10;65.90;;;;;;4964201;28;20497;-55
2021/12/11 03:45:39;;;;;;;3.43;2.50;;;8.20;65.80;;;;;;4962163;28;20482;-55
2021/12/11 03:48:11;;;;;;;2.30;2.20;;;8.20;65.50;;;;;;4960228;28;20784;-54
2021/12/11 03:50:37;;;;;;;4.40;2.63;;;8.10;65.70;;;;;;4970042;28;20447;-54
2021/12/11 03:53:04;;;;;;;2.47;2.27;;;8.10;66.00;;;;;;4961506;28;20550;-54
2021/12/11 03:55:34;;;;;;;2.50;2.30;;;8.10;66.90;;;;;;4960826;28;20581;-54
2021/12/11 03:58:01;;;;;;;2.33;2.20;;;8.00;66.10;;;;;;4965314;28;20497;-54
2021/12/11 04:00:38;;;;;;;2.47;2.27;;;7.90;66.40;;;;;;4961315;28;20500;-53
2021/12/11 04:03:09;;;;;;;2.50;2.30;;;7.90;66.70;;;;;;4961546;28;20509;-54
2021/12/11 04:05:38;;;;;;;2.43;2.30;;;7.80;66.50;;;;;;4959432;28;20521;-52
2021/12/11 04:08:08;;;;;;;2.27;2.17;;;7.90;66.40;;;;;;4962852;28;20435;-53
2021/12/11 04:10:34;;;;;;;2.60;2.40;;;8.10;66.30;;;;;;4963568;28;20435;-54
2021/12/11 04:13:05;;;;;;;2.63;2.43;;;8.10;66.00;;;;;;4961528;28;21825;-54
2021/12/11 04:15:31;;;;;;;3.00;2.80;;;8.10;66.10;;;;;;4960154;28;20199;-54
2021/12/11 04:17:57;;;;;;;3.43;3.13;;;8.10;65.90;;;;;;4971199;28;20450;-53
2021/12/11 04:20:26;;;;;;;7.67;5.47;;;8.10;65.90;;;;;;4954133;28;20232;-52
2021/12/11 04:22:52;;;;;;;8.43;6.47;;;8.10;65.90;;;;;;4967943;28;20651;-55
2021/12/11 04:25:21;;;;;;;14.30;9.30;;;7.90;66.30;;;;;;4960198;28;20435;-52
2021/12/11 04:27:47;;;;;;;13.90;10.63;;;7.90;66.80;;;;;;4963046;28;20436;-53
2021/12/11 04:30:19;;;;;;;16.03;12.97;;;7.90;66.60;;;;;;4960412;28;20442;-52
2021/12/11 04:32:46;;;;;;;17.87;13.60;;;8.00;66.20;;;;;;4961013;28;20447;-52
2021/12/11 04:35:13;;;;;;;17.37;14.43;;;8.00;66.30;;;;;;4969295;28;20525;-52
2021/12/11 04:37:39;;;;;;;22.07;16.43;;;8.00;66.60;;;;;;4969887;28;20460;-52
2021/12/11 04:40:14;;;;;;;15.57;11.90;;;7.90;66.70;;;;;;4962331;28;20487;-55
2021/12/11 04:42:54;;;;;;;11.57;8.47;;;7.90;66.60;;;;;;4961783;28;20457;-55
2021/12/11 04:45:31;;;;;;;5.27;4.80;;;7.80;66.70;;;;;;4959559;28;21275;-53
2021/12/11 04:48:04;;;;;;;4.80;4.40;;;7.90;66.60;;;;;;4961448;28;20447;-51
2021/12/11 04:50:51;;;;;;;4.70;3.50;;;7.80;66.70;;;;;;4960061;28;21244;-54
2021/12/11 04:53:41;;;;;;;4.40;4.00;;;7.90;66.40;;;;;;4961875;28;20435;-53
2021/12/11 05:04:33;;;;;;;4.03;3.73;;;8.00;66.60;;;;;;4959693;28;20450;-52
2021/12/11 05:07:19;;;;;;;4.30;3.60;;;7.90;66.50;;;;;;4959443;28;20967;-52
2021/12/11 05:09:57;;;;;;;4.43;4.13;;;7.90;66.80;;;;;;4958868;28;20442;-52
2021/12/11 05:14:50;;;;;;;4.67;4.27;;;7.90;67.20;;;;;;4962440;28;20437;-54
2021/12/11 05:17:17;;;;;;;4.40;4.00;;;8.00;66.70;;;;;;4959143;28;20526;-52
2021/12/11 05:19:46;;;;;;;4.60;4.20;;;8.00;66.40;;;;;;4964240;28;20235;-51
2021/12/11 05:22:13;;;;;;;4.00;3.70;;;8.00;66.70;;;;;;4969026;28;20445;-51
2021/12/11 05:24:43;;;;;;;4.40;4.00;;;8.00;66.50;;;;;;4962114;28;20905;-52
2021/12/11 05:27:09;;;;;;;4.40;4.00;;;8.00;66.40;;;;;;4971865;28;20803;-52
2021/12/11 05:29:35;;;;;;;5.10;4.63;;;8.00;66.40;;;;;;4962166;28;20447;-55
2021/12/11 05:32:02;;;;;;;5.63;5.13;;;8.00;66.50;;;;;;4960754;28;20195;-53
2021/12/11 05:34:28;;;;;;;5.40;4.90;;;8.00;66.50;;;;;;4970872;28;20512;-55
2021/12/11 05:36:53;;;;;;;4.97;4.57;;;8.00;66.60;;;;;;4972806;28;20817;-52
2021/12/11 05:39:21;;;;;;;5.53;5.03;;;7.90;66.30;;;;;;4967783;28;20298;-55
2021/12/11 05:41:49;;;;;;;5.20;4.80;;;7.90;66.80;;;;;;4971056;28;20575;-54
2021/12/11 05:44:19;;;;;;;5.63;5.13;;;7.90;66.60;;;;;;4971243;28;20450;-52
2021/12/11 05:46:45;;;;;;;5.40;4.90;;;7.90;66.60;;;;;;4975110;28;20513;-52
2021/12/11 05:49:12;;;;;;;5.33;4.93;;;7.90;66.80;;;;;;4967881;28;20461;-55
2021/12/11 05:51:40;;;;;;;5.60;5.10;;;7.90;66.90;;;;;;4971777;28;20950;-55
2021/12/11 05:54:09;;;;;;;4.97;4.57;;;7.80;66.70;;;;;;4970706;28;20839;-54
2021/12/11 05:56:37;;;;;;;5.50;4.97;;;7.70;67.40;;;;;;4964244;28;20435;-54
2021/12/11 05:59:10;;;;;;;5.33;4.83;;;7.80;67.40;;;;;;4966849;28;20473;-54
2021/12/11 06:01:46;;;;;;;5.10;4.70;;;7.60;68.10;;;;;;4966282;28;20901;-52
2021/12/11 06:04:16;;;;;;;5.43;5.03;;;7.60;67.50;;;;;;4962202;28;20434;-52
2021/12/11 06:06:42;;;;;;;5.87;5.37;;;7.50;67.80;;;;;;4963802;28;20435;-55
2021/12/11 06:09:13;;;;;;;6.03;5.50;;;7.50;68.20;;;;;;4969388;28;20438;-55
2021/12/11 06:11:40;;;;;;;6.00;5.50;;;7.60;68.00;;;;;;4968989;28;20439;-53
2021/12/11 06:14:06;;;;;;;5.60;5.10;;;7.70;68.00;;;;;;4970537;28;20446;-55
2021/12/11 06:16:32;;;;;;;5.93;5.43;;;7.80;67.90;;;;;;4968327;28;20935;-54
2021/12/11 06:19:03;;;;;;;6.30;5.80;;;7.80;67.50;;;;;;4967455;28;20707;-52
2021/12/11 06:21:29;;;;;;;6.03;5.53;;;7.90;67.40;;;;;;4963288;28;20455;-53
2021/12/11 06:23:55;;;;;;;7.00;6.40;;;7.80;67.50;;;;;;4965576;28;20927;-52
2021/12/11 06:26:21;;;;;;;6.13;5.53;;;7.80;67.60;;;;;;4969988;28;20445;-52
2021/12/11 06:28:46;;;;;;;5.53;5.13;;;7.70;67.90;;;;;;4965000;28;20203;-53
2021/12/11 06:31:18;;;;;;;6.43;5.93;;;7.80;67.80;;;;;;4964391;28;20188;-55
2021/12/11 06:33:45;;;;;;;6.93;6.33;;;8.00;67.90;;;;;;4966370;28;20212;-53
2021/12/11 06:36:11;;;;;;;6.63;5.90;;;8.10;68.10;;;;;;4960302;28;20828;-55
2021/12/11 06:38:39;;;;;;;7.30;6.57;;;8.10;67.50;;;;;;4967527;28;20443;-52
2021/12/11 06:41:07;;;;;;;6.70;6.10;;;8.10;67.30;;;;;;4965115;28;20471;-53
2021/12/11 06:43:33;;;;;;;6.90;6.30;;;8.30;67.10;;;;;;4968843;28;20837;-54
2021/12/11 06:45:59;;;;;;;7.90;7.10;;;8.20;66.00;;;;;;4963386;28;20432;-55
2021/12/11 06:48:25;;;;;;;7.87;7.07;;;8.10;66.30;;;;;;4970382;28;20514;-53
2021/12/11 06:50:53;;;;;;;6.90;6.30;;;8.30;66.20;;;;;;4964649;28;20437;-53
2021/12/11 06:53:26;;;;;;;7.63;6.87;;;8.30;66.20;;;;;;4971052;28;20443;-52
2021/12/11 06:55:52;;;;;;;7.90;6.20;;;8.40;65.90;;;;;;4965456;28;20454;-53
2021/12/11 06:58:18;;;;;;;6.87;6.23;;;8.50;65.60;;;;;;4964172;28;20439;-55
2021/12/11 07:00:44;;;;;;;7.00;6.20;;;8.50;65.00;;;;;;4966831;28;20529;-52
2021/12/11 07:03:10;;;;;;;7.27;6.57;;;8.50;64.90;;;;;;4962030;28;20436;-55
2021/12/11 07:05:37;;;;;;;7.87;7.17;;;8.60;64.80;;;;;;4969946;28;20223;-52
2021/12/11 07:08:05;;;;;;;7.97;7.27;;;8.50;64.60;;;;;;4965794;28;20620;-53
2021/12/11 07:10:32;;;;;;;7.53;6.83;;;8.50;64.60;;;;;;4973987;28;20435;-52
2021/12/11 07:12:58;;;;;;;7.00;6.40;;;8.40;64.70;;;;;;4975342;28;20427;-53
2021/12/11 07:15:23;;;;;;;7.40;6.70;;;8.40;65.00;;;;;;4974077;28;20545;-51
2021/12/11 07:17:49;;;;;;;7.83;7.03;;;8.40;64.80;;;;;;4975748;28;20206;-52
2021/12/11 07:20:15;;;;;;;7.70;7.00;;;8.40;64.90;;;;;;4974462;28;20237;-52
2021/12/11 07:22:41;;;;;;;8.60;7.80;;;8.50;64.80;;;;;;4977937;28;20290;-52
2021/12/11 07:25:17;;;;;;;8.30;7.50;;;8.30;65.10;;;;;;4959675;28;20446;-52
2021/12/11 07:27:44;;;;;;;9.00;8.20;;;8.40;65.00;;;;;;4960813;28;20525;-54
2021/12/11 07:30:10;;;;;;;8.33;7.43;;;8.50;65.00;;;;;;4961264;28;20435;-52
2021/12/11 07:32:35;;;;;;;20.80;18.80;;;8.70;64.40;;;;;;4955311;28;20454;-55
2021/12/11 07:35:01;;;;;;;22.27;19.90;;;8.70;64.00;;;;;;4955208;28;20916;-55
2021/12/11 07:37:27;;;;;;;18.97;16.40;;;8.70;64.00;;;;;;4955405;28;20196;-54
2021/12/11 07:39:53;;;;;;;12.10;10.90;;;8.80;63.80;;;;;;4964612;28;20627;-54
2021/12/11 07:42:20;;;;;;;9.50;8.60;;;8.90;63.40;;;;;;4974362;28;20639;-54
2021/12/11 07:44:45;;;;;;;9.43;8.43;;;8.80;63.20;;;;;;4974261;28;20227;-52
2021/12/11 07:47:11;;;;;;;10.03;9.03;;;8.80;63.50;;;;;;4974590;28;20482;-51
2021/12/11 07:49:37;;;;;;;13.07;9.33;;;8.80;63.40;;;;;;4973770;28;20548;-52
2021/12/11 07:52:04;;;;;;;11.50;8.87;;;8.80;63.30;;;;;;4960478;28;20199;-52
2021/12/11 07:54:29;;;;;;;9.97;8.97;;;8.80;63.50;;;;;;4968312;28;20730;-52
2021/12/11 07:56:55;;;;;;;11.50;9.17;;;8.90;63.50;;;;;;4972648;28;20510;-55
2021/12/11 07:59:22;;;;;;;11.53;10.40;;;8.90;63.40;;;;;;4973836;28;20322;-54
2021/12/11 08:01:51;;;;;;;10.87;9.50;;;9.00;63.30;;;;;;4963347;28;20349;-53
2021/12/11 08:04:17;;;;;;;11.40;10.30;;;9.00;63.20;;;;;;4954621;28;20431;-54
2021/12/11 08:06:43;;;;;;;20.87;15.77;;;8.90;63.10;;;;;;4954893;28;20458;-53
2021/12/11 08:09:15;;;;;;;16.47;14.00;;;8.90;63.10;;;;;;4971824;28;20910;-54
2021/12/11 08:11:41;;;;;;;16.37;14.67;;;8.90;63.20;;;;;;4973232;28;20868;-55
2021/12/11 08:14:07;;;;;;;15.73;14.23;;;8.90;63.10;;;;;;4965086;28;20443;-52
2021/12/11 08:16:45;;;;;;;12.03;10.83;;;8.80;63.00;;;;;;4956283;28;20447;-52
2021/12/11 08:19:12;;;;;;;10.63;9.10;;;8.70;63.30;;;;;;4973979;28;20478;-55
2021/12/11 08:21:38;;;;;;;10.77;9.67;;;8.50;64.10;;;;;;4971793;28;20442;-53
2021/12/11 08:24:05;;;;;;;9.80;8.80;;;8.60;64.30;;;;;;4963440;28;20458;-53
2021/12/11 08:26:33;;;;;;;11.00;9.90;;;8.70;64.10;;;;;;4954061;28;20217;-53
2021/12/11 08:29:00;;;;;;;14.77;10.20;;;8.70;63.90;;;;;;4954710;28;20428;-55
2021/12/11 08:31:25;;;;;;;11.40;9.10;;;8.80;63.70;;;;;;4953403;28;20432;-52
2021/12/11 08:33:53;;;;;;;9.07;8.17;;;8.80;63.50;;;;;;4961568;28;20442;-52
2021/12/11 08:36:20;;;;;;;10.17;9.10;;;8.80;63.50;;;;;;4973296;28;20205;-53
2021/12/11 08:38:47;;;;;;;11.20;9.57;;;8.70;63.50;;;;;;4973594;28;20474;-55
2021/12/11 08:41:15;;;;;;;10.50;8.97;;;8.70;64.60;;;;;;4972603;28;20533;-52
2021/12/11 08:43:42;;;;;;;10.73;9.60;;;8.80;63.70;;;;;;4973546;28;20431;-54
2021/12/11 08:46:12;;;;;;;10.80;9.70;;;8.80;63.70;;;;;;4973160;28;20439;-52
2021/12/11 08:48:44;;;;;;;10.63;9.53;;;9.00;63.30;;;;;;4970447;28;20442;-53
2021/12/11 08:51:21;;;;;;;11.17;9.33;;;9.10;62.70;;;;;;4972715;28;20446;-51
2021/12/11 08:53:46;;;;;;;9.90;8.87;;;9.20;62.10;;;;;;4973378;28;20516;-52
2021/12/11 08:56:13;;;;;;;10.53;9.43;;;9.30;61.80;;;;;;4972557;28;20443;-52
2021/12/11 08:58:43;;;;;;;9.80;8.80;;;9.40;61.60;;;;;;4973128;28;20199;-51
2021/12/11 09:01:14;;;;;;;10.50;9.40;;;9.50;61.30;;;;;;4972520;28;20935;-51
2021/12/11 09:03:49;;;;;;;9.23;8.13;;;9.30;61.10;;;;;;4973326;28;20427;-54
2021/12/11 09:06:31;;;;;;;10.50;9.20;;;9.20;61.80;;;;;;4964552;28;20443;-51
2021/12/11 09:09:23;;;;;;;11.10;9.77;;;9.20;61.70;;;;;;4963393;28;20448;-55
2021/12/11 09:12:08;;;;;;;11.00;9.90;;;9.40;61.20;;;;;;4957325;28;20954;-54
2021/12/11 09:14:39;;;;;;;11.37;10.20;;;9.50;60.60;;;;;;4963572;28;20482;-58
2021/12/11 09:17:15;;;;;;;12.47;10.33;;;9.60;60.60;;;;;;4960655;28;20447;-54
2021/12/11 09:19:49;;;;;;;10.77;9.63;;;9.70;60.60;;;;;;4968387;28;20861;-50
2021/12/11 09:22:29;;;;;;;10.60;9.50;;;9.70;59.70;;;;;;4965701;28;20892;-52
2021/12/11 09:25:14;;;;;;;10.53;9.43;;;9.60;60.00;;;;;;4960818;28;20817;-51
2021/12/11 09:27:51;;;;;;;11.13;10.00;;;9.50;60.00;;;;;;4966362;28;20439;-50
2021/12/11 09:30:20;;;;;;;20.77;11.37;;;9.40;60.60;;;;;;4958212;28;20450;-51
2021/12/11 09:32:52;;;;;;;14.17;10.10;;;9.30;60.50;;;;;;4967485;28;20450;-50
2021/12/11 09:35:30;;;;;;;13.33;11.80;;;9.50;60.60;;;;;;4968817;28;20522;-51
2021/12/11 09:38:01;;;;;;;14.37;11.23;;;9.50;60.30;;;;;;4971332;28;20454;-50
2021/12/11 09:40:39;;;;;;;13.03;11.63;;;9.60;60.90;;;;;;4960134;28;20491;-54
2021/12/11 09:43:04;;;;;;;12.97;10.63;;;9.60;60.40;;;;;;4965372;28;20441;-54
2021/12/11 09:45:37;;;;;;;16.00;10.70;;;9.60;60.40;;;;;;4966401;28;20446;-51
2021/12/11 09:48:10;;;;;;;12.13;10.10;;;9.70;60.20;;;;;;4971374;28;20199;-51
2021/12/11 09:50:46;;;;;;;13.67;11.43;;;9.80;60.20;;;;;;4971953;28;20462;-50
2021/12/11 09:53:14;;;;;;;17.40;15.60;;;10.00;59.10;;;;;;4968446;28;20960;-50
2021/12/11 09:55:41;;;;;;;14.60;12.53;;;10.10;58.90;;;;;;4966287;28;20529;-56
2021/12/11 09:58:12;;;;;;;13.43;12.03;;;10.10;58.70;;;;;;4963427;28;20430;-51
2021/12/11 10:00:42;;;;;;;13.40;11.80;;;10.20;58.60;;;;;;4961830;28;20536;-53
2021/12/11 10:03:11;;;;;;;13.10;11.70;;;10.30;58.60;;;;;;4961806;28;20487;-50
2021/12/11 10:05:44;;;;;;;15.30;12.73;;;10.50;58.60;;;;;;4967038;28;20438;-50
2021/12/11 10:08:32;;;;;;;15.83;14.17;;;10.50;58.10;;;;;;4960908;28;20534;-54
2021/12/11 10:11:22;;;;;;;48.20;36.50;;;10.50;57.90;;;;;;4964529;28;20440;-54
2021/12/11 10:13:56;;;;;;;34.03;25.37;;;10.60;57.90;;;;;;4960881;28;20877;-53
2021/12/11 10:16:28;;;;;;;16.60;12.93;;;10.50;57.20;;;;;;4963255;28;20429;-53
2021/12/11 10:18:55;;;;;;;41.37;29.07;;;10.30;57.40;;;;;;4966814;28;20442;-53
2021/12/11 10:21:23;;;;;;;17.37;12.83;;;10.30;57.90;;;;;;4967548;28;20478;-53
2021/12/11 10:23:52;;;;;;;25.97;19.00;;;10.20;57.90;;;;;;4966390;28;20577;-54
2021/12/11 10:26:20;;;;;;;35.37;23.60;;;10.10;57.80;;;;;;4971960;28;20448;-51
2021/12/11 10:28:52;;;;;;;16.53;12.97;;;10.10;58.20;;;;;;4969206;28;20796;-51
2021/12/11 10:31:34;;;;;;;94.80;54.23;;;9.90;59.40;;;;;;4960247;28;20442;-52
2021/12/11 10:34:03;;;;;;;14.03;11.20;;;9.80;59.60;;;;;;4967847;28;20447;-50
2021/12/11 10:36:32;;;;;;;11.13;9.90;;;9.80;59.80;;;;;;4964782;28;20471;-52
2021/12/11 10:38:59;;;;;;;10.20;8.70;;;9.90;59.80;;;;;;4964522;28;20447;-53
2021/12/11 10:41:28;;;;;;;9.63;8.73;;;9.80;59.50;;;;;;4964305;28;20439;-54
2021/12/11 10:44:08;;;;;;;10.03;9.03;;;9.80;59.30;;;;;;4970602;28;20466;-51
2021/12/11 10:46:39;;;;;;;10.00;8.77;;;10.00;58.60;;;;;;4962444;28;20454;-53
2021/12/11 10:49:07;;;;;;;10.20;8.13;;;10.10;58.40;;;;;;4968155;28;20483;-54
2021/12/11 10:51:44;;;;;;;9.57;7.80;;;10.10;58.20;;;;;;4965340;28;20438;-53
2021/12/11 10:54:12;;;;;;;9.20;8.00;;;10.00;57.70;;;;;;4969635;28;20488;-52
2021/12/11 10:56:37;;;;;;;10.00;9.00;;;9.90;58.80;;;;;;4970952;28;20452;-51
2021/12/11 10:59:09;;;;;;;9.20;8.10;;;9.90;58.90;;;;;;4965361;28;20562;-50
2021/12/11 11:02:06;;;;;;;8.60;7.70;;;9.90;58.90;;;;;;4965083;28;20567;-54
2021/12/11 11:04:36;;;;;;;9.67;8.67;;;9.90;59.10;;;;;;4963249;28;20450;-52
2021/12/11 11:07:03;;;;;;;7.80;6.93;;;10.00;58.20;;;;;;4967702;28;20451;-56
2021/12/11 11:09:29;;;;;;;8.57;6.73;;;10.00;58.00;;;;;;4955872;28;20444;-53
2021/12/11 11:11:59;;;;;;;8.83;7.83;;;10.00;58.10;;;;;;4969412;28;20526;-56
2021/12/11 11:14:25;;;;;;;8.30;7.50;;;10.20;58.10;;;;;;4966685;28;20474;-56
2021/12/11 11:16:56;;;;;;;7.87;7.07;;;10.20;58.00;;;;;;4969572;28;20527;-55
2021/12/11 11:19:24;;;;;;;7.00;6.30;;;10.30;58.00;;;;;;4966813;28;20479;-54
2021/12/11 11:21:57;;;;;;;6.97;6.27;;;10.30;57.60;;;;;;4972357;28;20526;-52
2021/12/11 11:24:28;;;;;;;10.50;6.63;;;10.20;57.30;;;;;;4964499;28;21051;-51
2021/12/11 11:26:53;;;;;;;6.17;5.57;;;10.20;57.20;;;;;;4972140;28;20444;-50
2021/12/11 11:29:22;;;;;;;6.53;5.80;;;10.10;57.30;;;;;;4970941;28;20447;-52
2021/12/11 11:31:50;;;;;;;6.83;5.67;;;10.10;57.50;;;;;;4960971;28;20438;-52
2021/12/11 11:34:19;;;;;;;6.10;5.50;;;10.20;57.40;;;;;;4966768;28;20431;-50
2021/12/11 11:36:46;;;;;;;7.30;6.60;;;10.20;57.30;;;;;;4969289;28;20439;-54
2021/12/11 11:39:17;;;;;;;7.40;6.60;;;10.30;57.20;;;;;;4966808;28;20514;-51
2021/12/11 11:41:51;;;;;;;6.13;5.53;;;10.30;57.30;;;;;;4967983;28;20439;-50
2021/12/11 11:44:19;;;;;;;7.30;6.60;;;10.40;57.30;;;;;;4971612;28;20434;-51
2021/12/11 11:46:46;;;;;;;8.90;6.50;;;10.50;57.60;;;;;;4971488;28;20942;-53
2021/12/11 11:49:13;;;;;;;7.03;5.80;;;10.50;57.00;;;;;;4961593;28;20545;-53
2021/12/11 11:51:52;;;;;;;6.47;5.73;;;10.50;56.60;;;;;;4969559;28;20431;-52
2021/12/11 11:54:22;;;;;;;5.40;4.90;;;10.40;56.50;;;;;;4967727;28;20466;-53
2021/12/11 11:56:59;;;;;;;7.03;6.20;;;10.50;56.60;;;;;;4971444;28;20460;-50
2021/12/11 11:59:25;;;;;;;6.63;5.90;;;10.40;56.50;;;;;;4964264;28;20841;-53
2021/12/11 12:02:05;;;;;;;8.27;7.40;;;10.50;56.30;;;;;;4966348;28;20510;-49
2021/12/11 12:04:33;;;;;;;8.13;7.40;;;10.30;55.70;;;;;;4962248;28;20451;-51
2021/12/11 12:07:02;;;;;;;6.60;5.97;;;10.30;56.10;;;;;;4968764;28;20805;-52
2021/12/11 12:09:31;;;;;;;9.13;6.10;;;10.10;55.50;;;;;;4965029;28;20443;-50
2021/12/11 12:11:58;;;;;;;7.00;5.23;;;9.80;56.50;;;;;;4970806;28;20434;-49
2021/12/11 12:14:30;;;;;;;6.33;5.60;;;9.60;56.80;;;;;;4963874;28;20447;-50
2021/12/11 12:16:56;;;;;;;7.13;6.33;;;9.70;56.80;;;;;;4972911;28;20437;-49
2021/12/11 12:19:22;;;;;;;6.17;5.57;;;9.50;56.90;;;;;;4969404;28;20573;-49
2021/12/11 12:21:52;;;;;;;7.27;6.57;;;9.40;57.20;;;;;;4968246;28;20446;-49
2021/12/11 12:24:22;;;;;;;7.47;6.67;;;9.50;57.40;;;;;;4973341;28;20533;-50
2021/12/11 12:26:50;;;;;;;6.03;5.47;;;9.50;57.00;;;;;;4968754;28;20894;-50
2021/12/11 12:29:18;;;;;;;8.73;6.20;;;9.50;57.20;;;;;;4971152;28;20443;-50
2021/12/11 12:31:51;;;;;;;6.83;5.17;;;9.50;57.20;;;;;;4966967;28;20446;-50
2021/12/11 12:34:19;;;;;;;9.03;6.27;;;9.40;57.00;;;;;;4978642;28;20480;-51
2021/12/11 12:36:45;;;;;;;6.10;5.60;;;9.20;56.90;;;;;;4970406;28;20454;-52
2021/12/11 12:39:13;;;;;;;7.93;6.10;;;9.20;57.00;;;;;;4968496;28;20489;-49
2021/12/11 12:41:58;;;;;;;7.00;6.30;;;9.30;57.30;;;;;;4970229;28;20435;-49
2021/12/11 12:44:24;;;;;;;6.87;6.17;;;9.30;57.50;;;;;;4966243;28;20462;-50
2021/12/11 12:47:08;;;;;;;8.20;6.13;;;9.20;57.70;;;;;;4962680;28;20456;-50
2021/12/11 12:49:38;;;;;;;7.07;6.37;;;9.50;57.90;;;;;;4965478;28;20861;-51
2021/12/11 12:52:12;;;;;;;7.00;6.17;;;9.70;57.40;;;;;;4961835;28;20974;-51
2021/12/11 12:54:38;;;;;;;6.73;6.03;;;9.90;56.70;;;;;;4969985;28;20482;-51
2021/12/11 12:57:13;;;;;;;8.00;6.20;;;9.70;55.60;;;;;;4971265;28;20434;-49
2021/12/11 13:00:00;;;;;;;7.07;6.37;;;9.90;55.50;;;;;;4963828;28;20477;-50
2021/12/11 13:02:28;;;;;;;6.90;5.70;;;10.00;54.60;;;;;;4952421;28;20489;-50
2021/12/11 13:05:03;;;;;;;7.60;6.13;;;10.10;54.30;;;;;;4960623;28;20450;-50
2021/12/11 13:07:29;;;;;;;7.40;6.57;;;10.20;53.80;;;;;;4960557;28;20503;-50
2021/12/11 13:09:59;;;;;;;8.87;6.60;;;10.20;54.20;;;;;;4964025;28;20443;-50
2021/12/11 13:12:27;;;;;;;6.53;5.93;;;10.10;54.00;;;;;;4966685;28;20191;-50
2021/12/11 13:15:00;;;;;;;6.87;6.17;;;9.90;54.80;;;;;;4959500;28;21270;-54
2021/12/11 13:17:32;;;;;;;6.87;6.23;;;9.70;54.90;;;;;;4962698;28;20934;-55
2021/12/11 13:20:05;;;;;;;8.07;6.37;;;9.70;55.20;;;;;;4968217;28;20495;-53